createdAt,value
2022-11-29T00:04:53.457Z,95.00
2022-11-29T00:08:35.926Z,95.00
2022-11-29T00:12:07.689Z,95.10
2022-11-29T00:18:39.631Z,95.00
2022-11-29T00:25:03.055Z,95.00
2022-11-29T00:28:21.536Z,95.10
2022-11-29T00:30:49.787Z,95.00
2022-11-29T00:33:56.224Z,95.00
2022-11-29T00:36:27.485Z,95.00
2022-11-29T00:42:19.582Z,95.00
2022-11-29T00:44:58.344Z,95.10
2022-11-29T00:47:40.719Z,95.00
2022-11-29T00:54:22.825Z,95.00
2022-11-29T00:56:53.425Z,95.00
2022-11-29T01:00:17.025Z,95.00
2022-11-29T01:02:46.098Z,95.00
2022-11-29T01:05:51.954Z,95.00
2022-11-29T01:08:58.468Z,95.00
2022-11-29T01:14:37.200Z,95.00
2022-11-29T01:21:02.830Z,95.10
2022-11-29T01:24:19.101Z,95.40
2022-11-29T01:26:53.225Z,95.00
2022-11-29T01:30:42.825Z,95.00
2022-11-29T01:32:40.941Z,95.10
2022-11-29T01:35:30.392Z,95.00
2022-11-29T01:38:19.356Z,95.00
2022-11-29T01:41:42.193Z,95.00
2022-11-29T01:44:46.348Z,95.40
2022-11-29T01:50:43.631Z,95.00
2022-11-29T01:53:52.826Z,95.00
2022-11-29T01:57:06.281Z,95.00
2022-11-29T02:08:30.902Z,95.00
2022-11-29T02:12:24.458Z,95.00
2022-11-29T02:15:12.200Z,95.00
2022-11-29T02:18:26.306Z,95.00
2022-11-29T02:28:46.094Z,95.00
2022-11-29T02:32:12.339Z,95.00
2022-11-29T02:35:02.883Z,95.00
2022-11-29T02:38:04.822Z,95.00
2022-11-29T02:41:06.118Z,95.00
2022-11-29T02:43:49.927Z,95.10
2022-11-29T02:46:52.519Z,95.00
2022-11-29T02:52:40.405Z,95.00
2022-11-29T02:55:36.884Z,95.00
2022-11-29T02:58:24.167Z,95.00
2022-11-29T03:01:29.772Z,95.00
2022-11-29T03:04:26.962Z,95.00
2022-11-29T03:07:18.687Z,95.00
2022-11-29T03:10:53.339Z,95.00
2022-11-29T03:13:42.139Z,95.00
2022-11-29T03:16:28.565Z,95.00
2022-11-29T03:22:44.334Z,95.00
2022-11-29T03:26:14.969Z,95.00
2022-11-29T03:29:38.251Z,95.00
2022-11-29T03:35:56.727Z,95.00
2022-11-29T03:38:34.175Z,95.00
2022-11-29T03:42:12.056Z,95.00
2022-11-29T03:45:00.681Z,95.00
2022-11-29T03:50:38.573Z,95.00
2022-11-29T03:54:11.717Z,95.00
2022-11-29T03:56:42.674Z,95.00
2022-11-29T04:00:10.917Z,95.00
2022-11-29T04:10:43.571Z,95.00
2022-11-29T04:14:04.430Z,95.00
2022-11-29T04:17:35.014Z,95.00
2022-11-29T04:20:48.016Z,95.00
2022-11-29T04:24:13.785Z,95.00
2022-11-29T04:34:35.104Z,95.00
2022-11-29T04:41:42.655Z,95.10
2022-11-29T04:44:38.183Z,95.00
2022-11-29T05:01:34.585Z,95.00
2022-11-29T05:04:23.491Z,95.40
2022-11-29T05:10:21.163Z,95.10
2022-11-29T05:29:32.927Z,95.10
2022-11-29T05:32:39.196Z,95.10
2022-11-29T05:47:03.000Z,95.10
2022-11-29T06:25:22.260Z,95.10
2022-11-29T06:28:35.216Z,95.10
2022-11-29T06:39:57.698Z,95.10
2022-11-29T06:42:38.324Z,95.10
2022-11-29T06:49:01.918Z,95.10
2022-11-29T06:56:02.319Z,95.10
2022-11-29T07:06:19.748Z,95.20
2022-11-29T07:32:24.732Z,95.10
2022-11-29T07:42:58.017Z,95.10
2022-11-29T07:46:56.852Z,95.10
2022-11-29T07:50:46.364Z,95.10
2022-11-29T07:53:17.724Z,95.10
2022-11-29T07:55:52.165Z,95.10
2022-11-29T08:05:40.908Z,95.10
2022-11-29T08:08:44.113Z,95.10
2022-11-29T08:12:14.488Z,95.10
2022-11-29T08:30:29.371Z,95.10
2022-11-29T08:40:40.623Z,95.20
2022-11-29T08:55:03.130Z,95.20
2022-11-29T08:57:40.153Z,95.20
2022-11-29T09:39:05.304Z,95.20
2022-11-29T10:04:41.637Z,95.30
2022-11-29T10:07:18.618Z,95.30
2022-11-29T10:09:50.914Z,95.40
2022-11-29T10:12:22.814Z,95.30
2022-11-29T10:14:55.821Z,95.30
2022-11-29T10:17:34.075Z,95.20
2022-11-29T10:20:10.778Z,95.20
2022-11-29T10:22:44.737Z,95.20
2022-11-29T10:25:21.024Z,95.20
2022-11-29T10:27:48.853Z,95.20
2022-11-29T10:30:17.711Z,95.20
2022-11-29T10:32:48.307Z,95.20
2022-11-29T10:35:20.923Z,95.20
2022-11-29T10:38:14.542Z,95.20
2022-11-29T10:40:41.166Z,95.20
2022-11-29T10:43:09.150Z,95.20
2022-11-29T10:45:45.705Z,95.20
2022-11-29T10:48:17.152Z,95.20
2022-11-29T10:50:48.663Z,95.20
2022-11-29T10:53:18.717Z,95.20
2022-11-29T10:55:50.881Z,95.10
2022-11-29T10:58:27.898Z,95.20
2022-11-29T11:00:57.948Z,95.20
2022-11-29T11:03:30.280Z,95.20
2022-11-29T11:06:02.984Z,95.10
2022-11-29T11:08:32.539Z,95.20
2022-11-29T11:11:02.230Z,95.20
2022-11-29T11:13:32.651Z,95.10
2022-11-29T11:16:09.896Z,95.10
2022-11-29T11:18:41.178Z,95.10
2022-11-29T11:21:13.989Z,95.20
2022-11-29T11:23:51.844Z,95.20
2022-11-29T11:26:20.604Z,95.20
2022-11-29T11:28:52.688Z,95.20
2022-11-29T11:31:29.984Z,95.10
2022-11-29T11:33:58.190Z,95.20
2022-11-29T11:36:28.480Z,95.10
2022-11-29T11:38:57.709Z,95.10
2022-11-29T11:41:49.463Z,95.20
2022-11-29T11:44:53.253Z,95.20
2022-11-29T11:47:24.266Z,95.20
2022-11-29T11:49:56.897Z,95.30
2022-11-29T11:52:32.958Z,95.30
2022-11-29T11:55:06.409Z,95.40
2022-11-29T11:57:34.667Z,95.40
2022-11-29T12:00:06.978Z,95.40
2022-11-29T12:02:38.941Z,95.40
2022-11-29T12:05:13.391Z,95.30
2022-11-29T12:08:13.361Z,95.40
2022-11-29T12:10:35.667Z,95.40
2022-11-29T12:13:05.370Z,95.50
2022-11-29T12:15:38.651Z,95.50
2022-11-29T12:18:13.216Z,95.50
2022-11-29T12:20:47.549Z,95.60
2022-11-29T12:23:29.760Z,95.80
2022-11-29T12:26:00.205Z,95.50
2022-11-29T12:28:29.999Z,95.50
2022-11-29T12:31:07.165Z,95.40
2022-11-29T12:33:43.671Z,95.50
2022-11-29T12:36:23.072Z,95.50
2022-11-29T12:39:10.015Z,95.50
2022-11-29T12:41:52.427Z,95.50
2022-11-29T12:44:31.419Z,95.50
2022-11-29T12:47:34.567Z,95.50
2022-11-29T12:50:08.835Z,95.50
2022-11-29T12:52:45.844Z,95.50
2022-11-29T12:55:24.377Z,95.50
2022-11-29T12:58:00.960Z,95.50
2022-11-29T13:00:36.970Z,95.50
2022-11-29T13:03:13.930Z,95.50
2022-11-29T13:05:53.023Z,95.40
2022-11-29T13:08:53.404Z,95.40
2022-11-29T13:11:26.336Z,95.40
2022-11-29T13:14:20.289Z,95.30
2022-11-29T13:16:57.493Z,95.40
2022-11-29T13:19:33.475Z,95.30
2022-11-29T13:22:10.350Z,95.40
2022-11-29T13:24:43.485Z,95.40
2022-11-29T13:27:18.027Z,95.50
2022-11-29T13:29:47.267Z,95.50
2022-11-29T13:32:30.701Z,95.50
2022-11-29T13:35:02.424Z,95.40
2022-11-29T13:37:35.371Z,95.40
2022-11-29T13:40:18.314Z,95.50
2022-11-29T13:42:54.495Z,95.50
2022-11-29T13:45:26.416Z,95.50
2022-11-29T13:47:56.450Z,95.50
2022-11-29T13:50:39.834Z,95.50
2022-11-29T13:53:15.642Z,95.50
2022-11-29T13:55:47.542Z,95.50
2022-11-29T13:58:35.180Z,95.50
2022-11-29T14:01:06.473Z,95.50
2022-11-29T14:03:38.361Z,95.50
2022-11-29T14:06:13.842Z,95.60
2022-11-29T14:11:43.982Z,95.50
2022-11-29T14:14:22.368Z,95.60
2022-11-29T14:16:54.203Z,95.50
2022-11-29T14:19:30.072Z,95.50
2022-11-29T14:22:22.935Z,95.50
2022-11-29T14:25:11.874Z,95.50
2022-11-29T14:28:02.059Z,95.50
2022-11-29T14:30:48.698Z,95.50
2022-11-29T14:33:31.059Z,95.50
2022-11-29T14:36:09.048Z,95.50
2022-11-29T14:38:44.381Z,95.50
2022-11-29T14:41:24.275Z,95.50
2022-11-29T14:44:04.553Z,95.50
2022-11-29T14:46:34.586Z,95.50
2022-11-29T14:49:05.494Z,95.40
2022-11-29T14:51:35.074Z,95.40
2022-11-29T14:54:14.015Z,95.40
2022-11-29T14:56:43.391Z,95.40
2022-11-29T14:59:40.212Z,95.50
2022-11-29T15:02:25.095Z,95.40
2022-11-29T15:04:56.690Z,95.40
2022-11-29T15:07:29.354Z,95.40
2022-11-29T15:10:01.045Z,95.40
2022-11-29T15:12:31.177Z,95.40
2022-11-29T15:15:11.092Z,95.40
2022-11-29T15:17:53.196Z,95.40
2022-11-29T15:20:37.437Z,95.40
2022-11-29T15:23:10.474Z,95.40
2022-11-29T15:25:47.628Z,95.40
2022-11-29T15:28:23.553Z,95.40
2022-11-29T15:31:01.998Z,95.40
2022-11-29T15:33:31.546Z,95.40
2022-11-29T15:36:06.366Z,95.40
2022-11-29T15:38:43.948Z,95.40
2022-11-29T15:41:23.661Z,95.50
2022-11-29T15:43:54.849Z,95.40
2022-11-29T15:46:26.790Z,95.40
2022-11-29T15:49:15.820Z,95.40
2022-11-29T15:51:43.699Z,95.40
2022-11-29T15:54:17.065Z,95.40
2022-11-29T15:56:48.361Z,95.40
2022-11-29T15:59:22.600Z,95.40
2022-11-29T16:01:55.675Z,95.40
2022-11-29T16:04:27.124Z,95.40
2022-11-29T16:06:57.224Z,95.40
2022-11-29T16:09:32.922Z,95.40
2022-11-29T16:12:02.650Z,95.80
2022-11-29T16:14:30.584Z,95.40
2022-11-29T16:17:00.679Z,95.50
2022-11-29T16:19:35.186Z,95.40
2022-11-29T16:22:13.257Z,95.40
2022-11-29T16:24:48.127Z,95.50
2022-11-29T16:27:16.278Z,95.50
2022-11-29T16:29:46.277Z,95.50
2022-11-29T16:32:17.886Z,95.50
2022-11-29T16:34:47.496Z,95.50
2022-11-29T16:37:19.949Z,95.50
2022-11-29T16:39:50.335Z,95.50
2022-11-29T16:42:24.873Z,95.50
2022-11-29T16:45:34.036Z,95.50
2022-11-29T16:48:02.854Z,95.50
2022-11-29T16:50:33.341Z,95.50
2022-11-29T16:53:35.617Z,95.50
2022-11-29T16:56:03.922Z,95.50
2022-11-29T16:58:32.129Z,95.50
2022-11-29T17:01:00.048Z,95.50
2022-11-29T17:03:27.895Z,95.50
2022-11-29T17:05:57.030Z,95.50
2022-11-29T17:08:24.839Z,95.40
2022-11-29T17:10:52.672Z,95.40
2022-11-29T17:13:20.472Z,95.50
2022-11-29T17:15:48.244Z,95.40
2022-11-29T17:18:16.073Z,95.40
2022-11-29T17:20:43.897Z,95.40
2022-11-29T17:23:13.023Z,95.50
2022-11-29T17:25:40.910Z,95.50
2022-11-29T17:28:08.726Z,95.50
2022-11-29T17:30:36.528Z,95.50
2022-11-29T17:33:04.494Z,95.50
2022-11-29T17:35:32.281Z,95.40
2022-11-29T17:38:00.168Z,95.50
2022-11-29T17:40:29.372Z,95.40
2022-11-29T17:42:57.214Z,95.50
2022-11-29T17:45:25.007Z,95.50
2022-11-29T17:47:52.860Z,95.50
2022-11-29T17:50:20.677Z,95.50
2022-11-29T17:52:48.496Z,95.50
2022-11-29T17:55:20.522Z,95.90
2022-11-29T17:57:50.052Z,95.50
2022-11-29T18:00:19.302Z,95.50
2022-11-29T18:02:47.085Z,95.50
2022-11-29T18:05:15.002Z,95.50
2022-11-29T18:07:57.885Z,95.50
2022-11-29T18:10:26.241Z,95.50
2022-11-29T18:12:55.581Z,95.50
2022-11-29T18:26:46.294Z,95.50
2022-11-29T18:29:15.768Z,95.50
2022-11-29T18:31:45.390Z,95.50
2022-11-29T18:34:14.550Z,95.90
2022-11-29T18:36:44.880Z,95.50
2022-11-29T18:39:14.945Z,95.90
2022-11-29T18:41:44.513Z,95.50
2022-11-29T18:44:13.952Z,95.50
2022-11-29T18:46:44.737Z,95.50
2022-11-29T18:49:13.947Z,95.50
2022-11-29T18:51:44.419Z,95.50
2022-11-29T18:54:12.772Z,95.50
2022-11-29T18:56:40.817Z,95.50
2022-11-29T18:59:10.816Z,95.50
2022-11-29T19:01:42.306Z,95.50
2022-11-29T19:04:13.884Z,95.50
2022-11-29T19:06:42.661Z,95.50
2022-11-29T19:09:14.689Z,95.50
2022-11-29T19:11:42.634Z,95.50
2022-11-29T19:14:12.692Z,95.50
2022-11-29T19:16:42.645Z,95.50
2022-11-29T19:19:11.915Z,95.50
2022-11-29T19:21:40.613Z,95.50
2022-11-29T19:24:13.790Z,95.50
2022-11-29T19:26:44.130Z,95.50
2022-11-29T19:29:12.488Z,95.50
2022-11-29T19:31:40.334Z,95.50
2022-11-29T19:34:08.261Z,95.50
2022-11-29T19:36:42.438Z,95.50
2022-11-29T19:39:10.853Z,95.50
2022-11-29T19:41:39.259Z,95.50
2022-11-29T19:44:08.883Z,95.50
2022-11-29T19:46:38.585Z,95.50
2022-11-29T19:49:07.761Z,95.50
2022-11-29T19:51:37.515Z,95.50
2022-11-29T19:54:07.000Z,95.50
2022-11-29T19:56:34.818Z,95.50
2022-11-29T19:59:02.645Z,95.50
2022-11-29T20:01:40.194Z,95.50
2022-11-29T20:04:09.648Z,95.50
2022-11-29T20:06:39.306Z,95.50
2022-11-29T20:09:07.480Z,95.50
2022-11-29T20:11:35.406Z,95.50
2022-11-29T20:14:04.695Z,95.50
2022-11-29T20:16:33.354Z,95.50
2022-11-29T20:19:01.598Z,95.50
2022-11-29T20:21:31.928Z,95.50
2022-11-29T20:24:02.348Z,95.50
2022-11-29T20:26:31.570Z,95.50
2022-11-29T20:28:59.793Z,95.50
2022-11-29T20:31:27.719Z,95.50
2022-11-29T20:33:57.346Z,95.40
2022-11-29T20:36:38.524Z,95.50
2022-11-29T20:39:18.225Z,95.50
2022-11-29T20:41:55.466Z,95.50
2022-11-29T20:44:38.431Z,95.50
2022-11-29T20:47:15.026Z,95.50
2022-11-29T20:49:43.232Z,95.50
2022-11-29T20:52:29.382Z,95.50
2022-11-29T20:54:58.539Z,95.50
2022-11-29T20:57:26.335Z,95.50
2022-11-29T20:59:54.109Z,95.50
2022-11-29T21:02:22.444Z,95.50
2022-11-29T21:04:50.268Z,95.50
2022-11-29T21:07:18.309Z,95.50
2022-11-29T21:09:47.444Z,95.50
2022-11-29T21:12:17.545Z,95.50
2022-11-29T21:14:46.050Z,95.50
2022-11-29T21:17:14.495Z,95.50
2022-11-29T21:19:42.751Z,95.50
2022-11-29T21:22:16.938Z,95.50
2022-11-29T21:24:51.345Z,95.50
2022-11-29T21:27:33.378Z,95.50
2022-11-29T21:30:03.173Z,95.50
2022-11-29T21:32:31.445Z,95.50
2022-11-29T21:34:59.953Z,95.50
2022-11-29T21:37:30.596Z,95.50
2022-11-29T21:39:58.636Z,95.50
2022-11-29T21:42:27.866Z,95.50
2022-11-29T21:44:55.625Z,95.50
2022-11-29T21:47:23.434Z,95.50
2022-11-29T21:49:52.687Z,95.50
2022-11-29T21:52:22.802Z,95.50
2022-11-29T21:54:50.959Z,95.50
2022-11-29T21:57:18.756Z,95.50
2022-11-29T21:59:47.874Z,95.50
2022-11-29T22:02:15.764Z,95.50
2022-11-29T22:04:43.682Z,95.50
2022-11-29T22:07:11.563Z,95.50
2022-11-29T22:09:39.397Z,95.50
2022-11-29T22:12:31.951Z,95.50
2022-11-29T22:14:56.752Z,95.50
2022-11-29T22:17:24.520Z,95.50
2022-11-29T22:19:52.281Z,95.50
2022-11-29T22:22:20.088Z,95.80
2022-11-29T22:24:48.151Z,95.50
2022-11-29T22:27:18.080Z,95.40
2022-11-29T22:29:46.041Z,95.50
2022-11-29T22:32:15.446Z,95.50
2022-11-29T22:34:43.400Z,95.40
2022-11-29T22:37:12.336Z,95.40
2022-11-29T22:39:40.126Z,95.40
2022-11-29T22:42:07.954Z,95.40
2022-11-29T22:44:35.755Z,95.50
2022-11-29T22:47:03.596Z,95.40
2022-11-29T22:49:33.233Z,95.50
2022-11-29T22:52:01.218Z,95.40
2022-11-29T22:54:29.156Z,95.50
2022-11-29T22:56:56.995Z,95.40
2022-11-29T22:59:24.794Z,95.40
2022-11-29T23:01:52.594Z,95.40
2022-11-29T23:04:20.430Z,95.40
2022-11-29T23:06:49.577Z,95.70
2022-11-29T23:09:20.977Z,95.80
2022-11-29T23:11:52.863Z,95.80
2022-11-29T23:14:21.964Z,95.40
2022-11-29T23:16:50.205Z,95.50
2022-11-29T23:19:18.286Z,95.50
2022-11-29T23:21:46.401Z,95.50
2022-11-29T23:24:16.405Z,95.50
2022-11-29T23:26:46.975Z,95.50
2022-11-29T23:29:17.010Z,95.50
2022-11-29T23:31:46.479Z,95.50
2022-11-29T23:34:14.807Z,95.50
2022-11-29T23:36:44.797Z,95.50
2022-11-29T23:39:17.452Z,95.40
2022-11-29T23:41:45.249Z,95.50
2022-11-29T23:44:13.049Z,95.50
2022-11-29T23:46:40.882Z,95.50
2022-11-29T23:49:08.686Z,95.50
2022-11-29T23:51:36.531Z,95.40
2022-11-29T23:54:04.429Z,95.50
2022-11-29T23:56:35.330Z,95.50
2022-11-29T23:59:03.494Z,95.50
